Terminal Aerodrome Forecast
Issued by NWS Spokane, WA

Home | Current Version | Previous Version | Text Only | Print | Product List | Glossary On
Versions: 1 2 3 4 5 6 7 8 9 10 11 12 13 14 15 16 17 18 19 20 21 22 23 24 25 26
000
FTUS46 KOTX 232339
TAFEAT
TAF
KEAT 232339Z 2400/2424 32011KT P6SM -RA BKN040 OVC080
     FM240300 30013G26KT P6SM VCSH BKN040 OVC100
     FM240700 30011KT P6SM BKN035 BKN100=

USA.gov is the U.S. government's official web portal to all federal, state and local government web resources and services.